createdAt,value
2023-05-18T00:07:06.473Z,99225.23
2023-05-18T00:17:10.426Z,99228.14
2023-05-18T00:27:39.136Z,99233.74
2023-05-18T00:37:47.140Z,99236.30
2023-05-18T00:47:52.080Z,99233.73
2023-05-18T00:57:56.690Z,99238.69
2023-05-18T01:08:02.509Z,99254.72
2023-05-18T01:18:09.668Z,99258.72
2023-05-18T01:28:19.768Z,99268.92
2023-05-18T01:38:26.341Z,99277.42
2023-05-18T01:48:33.194Z,99287.35
2023-05-18T01:58:37.290Z,99295.39
2023-05-18T02:08:41.100Z,99303.50
2023-05-18T02:18:45.240Z,99312.45
2023-05-18T02:28:48.759Z,99318.46
2023-05-18T02:38:52.669Z,99323.40
2023-05-18T02:48:57.483Z,99324.98
2023-05-18T02:59:02.068Z,99326.49
2023-05-18T03:09:05.699Z,99330.41
2023-05-18T03:19:09.449Z,99342.89
2023-05-18T03:29:16.477Z,99340.33
2023-05-18T03:39:23.618Z,99344.67
2023-05-18T03:49:29.385Z,99356.65
2023-05-18T03:59:33.200Z,99365.67
2023-05-18T04:09:36.784Z,99374.14
2023-05-18T04:19:40.487Z,99381.44
2023-05-18T04:29:44.114Z,99386.83
2023-05-18T04:39:47.673Z,99398.17
2023-05-18T04:49:52.399Z,99404.40
2023-05-18T04:59:57.819Z,99400.64
2023-05-18T05:10:01.494Z,99408.83
2023-05-18T05:20:07.285Z,99420.78
2023-05-18T05:30:12.324Z,99415.55
2023-05-18T05:40:15.986Z,99415.88
2023-05-18T05:50:20.228Z,99412.83
2023-05-18T06:00:23.819Z,99413.91
2023-05-18T06:10:27.788Z,99429.86
2023-05-18T06:20:31.782Z,99435.70
2023-05-18T06:30:38.604Z,99443.47
2023-05-18T06:40:42.828Z,99450.94
2023-05-18T06:50:46.435Z,99462.39
2023-05-18T07:00:50.130Z,99467.69
2023-05-18T07:10:56.459Z,99471.17
2023-05-18T07:21:00.052Z,99469.95
2023-05-18T07:31:04.312Z,99476.31
2023-05-18T07:41:08.088Z,99478.98
2023-05-18T07:51:11.800Z,99479.50
2023-05-18T08:01:16.032Z,99483.13
2023-05-18T08:11:19.730Z,99489.58
2023-05-18T08:21:23.548Z,99496.54
2023-05-18T08:31:31.030Z,99499.48
2023-05-18T08:41:40.852Z,99497.84
2023-05-18T08:51:47.120Z,99496.81
2023-05-18T09:01:51.995Z,99503.16
2023-05-18T09:11:55.823Z,99503.02
2023-05-18T09:21:59.753Z,99499.05
2023-05-18T09:32:04.095Z,99492.30
2023-05-18T09:42:07.952Z,99496.98
2023-05-18T09:52:15.691Z,99500.28
2023-05-18T10:02:19.781Z,99502.06
2023-05-18T10:12:24.074Z,99510.55
2023-05-18T10:22:28.639Z,99506.57
2023-05-18T10:32:35.524Z,99503.83
2023-05-18T10:42:42.893Z,99505.05
2023-05-18T10:52:49.028Z,99511.45
2023-05-18T11:02:54.332Z,99504.88
2023-05-18T11:13:00.625Z,99502.07
2023-05-18T11:23:04.221Z,99500.78
2023-05-18T11:33:11.942Z,99499.00
2023-05-18T11:43:21.507Z,99509.48
2023-05-18T11:53:26.809Z,99514.43
2023-05-18T12:03:33.313Z,99517.16
2023-05-18T12:13:42.550Z,99515.65
2023-05-18T12:23:46.132Z,99514.08
2023-05-18T12:33:50.697Z,99516.09
2023-05-18T12:43:55.420Z,99512.85
2023-05-18T12:53:59.308Z,99506.48
2023-05-18T13:04:12.344Z,99505.45
2023-05-18T13:14:20.561Z,99507.67
2023-05-18T13:24:24.214Z,99510.12
2023-05-18T13:34:31.553Z,99508.77
2023-05-18T13:44:38.948Z,99506.77
2023-05-18T13:54:42.711Z,99506.43
2023-05-18T14:04:46.340Z,99502.48
2023-05-18T14:14:49.996Z,99500.38
2023-05-18T14:24:53.902Z,99505.55
2023-05-18T14:34:58.299Z,99507.58
2023-05-18T14:45:02.539Z,99509.58
2023-05-18T14:55:07.234Z,99509.59
2023-05-18T15:05:10.860Z,99509.73
2023-05-18T15:15:14.431Z,99519.54
2023-05-18T15:25:17.567Z,99514.64
2023-05-18T15:35:21.590Z,99519.76
2023-05-18T15:45:26.190Z,99515.72
2023-05-18T15:55:33.599Z,99519.02
2023-05-18T16:05:38.122Z,99520.02
2023-05-18T16:15:42.460Z,99523.72
2023-05-18T16:25:46.767Z,99532.02
2023-05-18T16:35:53.150Z,99531.80
2023-05-18T16:45:57.920Z,99531.16
2023-05-18T16:56:02.279Z,99533.59
2023-05-18T17:06:09.987Z,99540.14
2023-05-18T17:16:15.386Z,99542.70
2023-05-18T17:26:19.583Z,99554.16
2023-05-18T17:36:23.214Z,99556.06
2023-05-18T17:46:26.953Z,99556.67
2023-05-18T18:06:38.061Z,99557.82
2023-05-18T18:16:41.950Z,99556.75
2023-05-18T18:26:46.093Z,99553.54
2023-05-18T18:36:49.643Z,99556.34
2023-05-18T18:46:56.819Z,99563.71
2023-05-18T18:57:00.990Z,99571.73
2023-05-18T19:07:05.602Z,99585.14
2023-05-18T19:17:09.517Z,99585.48
2023-05-18T19:27:13.448Z,99584.11
2023-05-18T19:37:17.156Z,99590.98
2023-05-18T19:47:20.748Z,99596.38
2023-05-18T19:57:26.735Z,99595.93
2023-05-18T20:07:30.686Z,99601.81
2023-05-18T20:17:34.358Z,99614.48
2023-05-18T20:27:38.185Z,99612.90
2023-05-18T20:37:46.376Z,99610.34
2023-05-18T20:48:24.275Z,99613.15
2023-05-18T20:58:28.281Z,99619.11
2023-05-18T21:08:32.134Z,99626.41
2023-05-18T21:18:36.600Z,99622.88
2023-05-18T21:28:40.442Z,99617.34
2023-05-18T21:38:44.348Z,99607.93
2023-05-18T21:48:51.746Z,99614.09
2023-05-18T21:58:56.138Z,99621.27
2023-05-18T22:08:59.951Z,99627.38
2023-05-18T22:19:03.746Z,99624.55
2023-05-18T22:29:11.549Z,99625.98
2023-05-18T22:39:16.660Z,99626.49
2023-05-18T22:49:21.227Z,99626.08
2023-05-18T22:59:25.056Z,99612.05
2023-05-18T23:09:30.197Z,99618.19
2023-05-18T23:19:35.668Z,99609.71
2023-05-18T23:29:39.951Z,99601.46
2023-05-18T23:39:46.023Z,99597.10
2023-05-18T23:49:51.467Z,99591.76
2023-05-18T23:59:55.750Z,99596.60
